createdAt,value
2023-04-21T00:01:37.786Z,26.52
2023-04-21T00:03:54.914Z,26.35
2023-04-21T00:06:12.137Z,30.30
2023-04-21T00:08:30.408Z,26.95
2023-04-21T00:10:47.575Z,27.67
2023-04-21T00:13:04.596Z,28.65
2023-04-21T00:15:21.970Z,28.67
2023-04-21T00:17:41.636Z,28.48
2023-04-21T00:19:58.626Z,30.63
2023-04-21T00:22:15.575Z,28.52
2023-04-21T00:24:33.535Z,28.70
2023-04-21T00:26:50.581Z,30.85
2023-04-21T00:29:07.921Z,28.35
2023-04-21T00:31:25.237Z,28.67
2023-04-21T00:33:42.628Z,28.17
2023-04-21T00:35:59.868Z,30.70
2023-04-21T00:38:19.218Z,34.45
2023-04-21T00:40:36.508Z,31.33
2023-04-21T00:42:53.853Z,31.20
2023-04-21T00:45:11.108Z,32.22
2023-04-21T00:47:28.428Z,31.90
2023-04-21T00:49:46.364Z,32.42
2023-04-21T00:52:03.684Z,32.85
2023-04-21T00:54:21.276Z,32.00
2023-04-21T00:56:39.281Z,32.20
2023-04-21T00:58:56.314Z,28.10
2023-04-21T01:01:13.667Z,31.15
2023-04-21T01:03:31.014Z,32.50
2023-04-21T01:05:48.211Z,33.30
2023-04-21T01:08:05.112Z,32.08
2023-04-21T01:10:22.098Z,30.08
2023-04-21T01:12:38.996Z,36.90
2023-04-21T01:14:56.078Z,32.45
2023-04-21T01:17:13.131Z,32.53
2023-04-21T01:19:30.555Z,31.48
2023-04-21T01:21:47.580Z,35.63
2023-04-21T01:24:04.859Z,32.47
2023-04-21T01:26:22.117Z,31.08
2023-04-21T01:28:39.191Z,31.13
2023-04-21T01:30:56.122Z,32.15
2023-04-21T01:33:13.242Z,33.25
2023-04-21T01:35:31.541Z,34.42
2023-04-21T01:37:48.658Z,33.83
2023-04-21T01:40:05.956Z,32.70
2023-04-21T01:42:23.270Z,33.65
2023-04-21T01:44:40.551Z,36.15
2023-04-21T01:46:57.801Z,33.15
2023-04-21T01:49:14.799Z,32.55
2023-04-21T01:51:32.121Z,32.67
2023-04-21T01:53:49.338Z,33.95
2023-04-21T01:56:06.289Z,34.60
2023-04-21T01:58:23.210Z,32.28
2023-04-21T02:00:41.469Z,35.47
2023-04-21T02:02:58.835Z,34.63
2023-04-21T02:05:16.113Z,34.35
2023-04-21T02:07:33.064Z,37.30
2023-04-21T02:09:50.056Z,35.25
2023-04-21T02:12:06.990Z,34.50
2023-04-21T02:14:24.135Z,35.15
2023-04-21T02:16:41.486Z,34.13
2023-04-21T02:18:58.746Z,35.58
2023-04-21T02:21:15.876Z,32.67
2023-04-21T02:23:32.872Z,32.15
2023-04-21T02:25:50.111Z,33.97
2023-04-21T02:28:08.396Z,31.55
2023-04-21T02:30:26.405Z,28.58
2023-04-21T02:32:43.888Z,29.58
2023-04-21T02:35:00.981Z,28.55
2023-04-21T02:37:17.892Z,30.02
2023-04-21T02:39:34.758Z,29.80
2023-04-21T02:41:52.072Z,28.08
2023-04-21T02:44:10.379Z,33.80
2023-04-21T02:46:28.678Z,31.63
2023-04-21T02:48:45.710Z,32.55
2023-04-21T02:51:03.034Z,32.03
2023-04-21T02:53:20.340Z,33.22
2023-04-21T02:55:37.453Z,32.15
2023-04-21T02:57:54.377Z,35.95
2023-04-21T03:00:11.421Z,27.13
2023-04-21T03:02:28.803Z,30.10
2023-04-21T03:04:45.939Z,31.83
2023-04-21T03:07:03.231Z,33.60
2023-04-21T03:09:20.366Z,28.35
2023-04-21T03:11:37.508Z,28.90
2023-04-21T03:13:54.529Z,28.83
2023-04-21T03:16:11.426Z,31.75
2023-04-21T03:18:28.715Z,31.95
2023-04-21T03:20:45.782Z,30.40
2023-04-21T03:23:03.130Z,29.27
2023-04-21T03:25:20.052Z,31.48
2023-04-21T03:27:37.375Z,29.83
2023-04-21T03:29:54.643Z,33.20
2023-04-21T03:32:11.777Z,30.77
2023-04-21T03:34:28.776Z,32.42
2023-04-21T03:36:45.805Z,30.15
2023-04-21T03:39:12.656Z,31.80
2023-04-21T03:41:35.912Z,29.15
2023-04-21T03:43:52.915Z,30.58
2023-04-21T03:46:09.962Z,31.45
2023-04-21T03:48:27.074Z,31.73
2023-04-21T03:50:45.072Z,30.83
2023-04-21T03:53:02.064Z,28.80
2023-04-21T03:55:18.999Z,30.55
2023-04-21T03:57:35.916Z,30.05
2023-04-21T03:59:52.993Z,33.63
2023-04-21T04:02:10.158Z,30.25
2023-04-21T04:04:28.821Z,29.65
2023-04-21T04:06:45.864Z,34.15
2023-04-21T04:09:03.906Z,28.98
2023-04-21T04:11:21.032Z,27.98
2023-04-21T04:13:38.101Z,28.88
2023-04-21T04:15:55.466Z,29.17
2023-04-21T04:18:12.490Z,29.08
2023-04-21T04:20:29.386Z,27.77
2023-04-21T04:22:46.653Z,27.80
2023-04-21T04:25:03.909Z,29.25
2023-04-21T04:27:21.183Z,30.13
2023-04-21T04:29:38.059Z,29.95
2023-04-21T04:31:55.336Z,32.30
2023-04-21T04:34:12.452Z,32.00
2023-04-21T04:36:29.543Z,30.52
2023-04-21T04:38:46.435Z,31.27
2023-04-21T04:41:03.734Z,32.13
2023-04-21T04:43:21.712Z,31.80
2023-04-21T04:45:38.738Z,31.70
2023-04-21T04:47:55.872Z,30.88
2023-04-21T04:50:12.950Z,32.97
2023-04-21T04:52:31.167Z,33.03
2023-04-21T04:54:48.108Z,30.33
2023-04-21T04:57:06.163Z,30.33
2023-04-21T04:59:23.514Z,31.27
2023-04-21T05:01:40.588Z,32.25
2023-04-21T05:03:57.959Z,32.85
2023-04-21T05:06:15.167Z,30.30
2023-04-21T05:08:32.194Z,31.60
2023-04-21T05:10:49.089Z,28.58
2023-04-21T05:13:06.081Z,30.63
2023-04-21T05:15:23.306Z,32.95
2023-04-21T05:17:40.716Z,35.45
2023-04-21T05:19:57.617Z,34.92
2023-04-21T05:22:14.887Z,41.95
2023-04-21T05:24:32.187Z,39.35
2023-04-21T05:26:49.125Z,34.97
2023-04-21T05:29:06.426Z,36.92
2023-04-21T05:31:23.473Z,36.05
2023-04-21T05:33:40.514Z,33.00
2023-04-21T05:35:57.862Z,31.05
2023-04-21T05:38:14.896Z,33.88
2023-04-21T05:40:32.129Z,37.92
2023-04-21T05:42:49.321Z,34.20
2023-04-21T05:45:07.673Z,33.50
2023-04-21T05:47:24.658Z,34.70
2023-04-21T05:49:41.943Z,36.45
2023-04-21T05:51:58.874Z,32.63
2023-04-21T05:54:15.817Z,33.42
2023-04-21T05:56:32.875Z,33.67
2023-04-21T05:58:49.911Z,32.53
2023-04-21T06:01:06.916Z,33.17
2023-04-21T06:03:25.239Z,33.25
2023-04-21T06:05:42.571Z,32.88
2023-04-21T06:07:59.548Z,32.72
2023-04-21T06:10:16.538Z,32.60
2023-04-21T06:12:33.720Z,31.85
2023-04-21T06:14:50.762Z,33.53
2023-04-21T06:17:07.754Z,32.80
2023-04-21T06:19:25.057Z,34.25
2023-04-21T06:21:42.076Z,32.00
2023-04-21T06:23:59.154Z,32.67
2023-04-21T06:26:16.166Z,30.33
2023-04-21T06:28:33.247Z,31.95
2023-04-21T06:30:50.578Z,32.65
2023-04-21T06:33:07.887Z,31.05
2023-04-21T06:35:24.832Z,32.83
2023-04-21T06:37:41.766Z,28.35
2023-04-21T06:39:59.061Z,30.10
2023-04-21T06:42:16.044Z,29.60
2023-04-21T06:44:33.089Z,32.40
2023-04-21T06:46:50.133Z,32.95
2023-04-21T06:49:07.458Z,33.60
2023-04-21T06:51:24.773Z,34.55
2023-04-21T06:53:42.075Z,35.63
2023-04-21T06:55:59.326Z,34.88
2023-04-21T06:58:17.325Z,32.45
2023-04-21T07:00:35.173Z,36.10
2023-04-21T07:02:52.561Z,34.45
2023-04-21T07:05:09.622Z,31.92
2023-04-21T07:07:26.570Z,34.05
2023-04-21T07:09:43.476Z,29.60
2023-04-21T07:12:00.500Z,35.50
2023-04-21T07:14:18.450Z,36.83
2023-04-21T07:16:35.764Z,37.65
2023-04-21T07:18:53.421Z,34.05
2023-04-21T07:21:11.884Z,34.38
2023-04-21T07:23:29.168Z,34.95
2023-04-21T07:25:46.247Z,39.42
2023-04-21T07:28:03.551Z,34.13
2023-04-21T07:30:20.602Z,34.33
2023-04-21T07:32:37.673Z,35.97
2023-04-21T07:34:55.514Z,35.88
2023-04-21T07:37:12.401Z,40.08
2023-04-21T07:39:30.402Z,36.58
2023-04-21T07:41:47.370Z,35.28
2023-04-21T07:44:05.619Z,36.85
2023-04-21T07:46:23.013Z,35.83
2023-04-21T07:48:40.339Z,32.33
2023-04-21T07:50:57.577Z,35.85
2023-04-21T07:53:14.807Z,34.15
2023-04-21T07:55:32.129Z,33.25
2023-04-21T07:57:49.449Z,31.95
2023-04-21T08:00:07.546Z,37.45
2023-04-21T08:02:24.746Z,36.95
2023-04-21T08:04:41.963Z,35.17
2023-04-21T08:06:59.317Z,34.78
2023-04-21T08:09:20.884Z,33.13
2023-04-21T08:19:03.769Z,33.78
2023-04-21T08:21:20.838Z,29.02
2023-04-21T08:23:37.934Z,30.58
2023-04-21T08:25:55.260Z,29.40
2023-04-21T08:28:13.185Z,30.38
2023-04-21T08:30:30.229Z,31.58
2023-04-21T08:32:47.571Z,34.38
2023-04-21T08:35:04.942Z,31.38
2023-04-21T08:37:22.199Z,33.75
2023-04-21T08:39:39.132Z,32.35
2023-04-21T08:41:56.072Z,29.70
2023-04-21T08:44:13.442Z,25.83
2023-04-21T08:46:31.964Z,26.05
2023-04-21T08:48:49.036Z,22.23
2023-04-21T08:51:06.271Z,22.55
2023-04-21T08:53:23.541Z,18.25
2023-04-21T08:55:40.773Z,20.75
2023-04-21T08:57:58.115Z,17.42
2023-04-21T09:00:15.384Z,17.45
2023-04-21T09:02:32.467Z,17.17
2023-04-21T09:04:50.191Z,16.45
2023-04-21T09:07:07.652Z,16.98
2023-04-21T09:09:24.698Z,16.33
2023-04-21T09:11:41.717Z,15.32
2023-04-21T09:13:59.611Z,14.40
2023-04-21T09:16:17.624Z,15.88
2023-04-21T09:18:34.952Z,14.38
2023-04-21T09:20:52.200Z,13.82
2023-04-21T09:23:09.167Z,17.50
2023-04-21T09:25:26.125Z,13.95
2023-04-21T09:27:43.459Z,15.68
2023-04-21T09:30:01.365Z,13.45
2023-04-21T09:32:18.350Z,15.75
2023-04-21T09:34:36.402Z,13.93
2023-04-21T09:36:53.659Z,11.82
2023-04-21T09:41:30.839Z,11.63
2023-04-21T09:43:48.956Z,9.85
2023-04-21T09:46:05.900Z,13.32
2023-04-21T09:48:22.906Z,11.13
2023-04-21T09:51:22.115Z,11.05
2023-04-21T09:53:17.910Z,12.77
2023-04-21T09:55:35.196Z,9.70
2023-04-21T09:57:52.510Z,10.95
2023-04-21T10:00:09.757Z,9.57
2023-04-21T10:02:26.838Z,8.38
2023-04-21T10:04:44.439Z,11.15
2023-04-21T10:07:01.811Z,10.48
2023-04-21T10:09:18.796Z,11.77
2023-04-21T10:11:36.050Z,11.95
2023-04-21T10:13:52.936Z,9.80
2023-04-21T10:16:09.862Z,7.70
2023-04-21T10:18:26.940Z,11.18
2023-04-21T10:20:43.905Z,9.80
2023-04-21T10:23:00.953Z,9.30
2023-04-21T10:25:17.975Z,9.73
2023-04-21T10:27:34.944Z,9.48
2023-04-21T10:29:56.608Z,9.18
2023-04-21T10:32:14.316Z,9.73
2023-04-21T10:34:32.384Z,11.52
2023-04-21T10:36:49.421Z,9.35
2023-04-21T10:39:06.469Z,8.30
2023-04-21T10:41:23.483Z,8.63
2023-04-21T10:43:40.509Z,12.25
2023-04-21T10:45:57.556Z,7.75
2023-04-21T10:48:14.518Z,9.68
2023-04-21T10:50:31.542Z,10.80
2023-04-21T10:52:48.759Z,20.17
2023-04-21T10:55:05.784Z,9.18
2023-04-21T10:57:22.816Z,8.35
2023-04-21T10:59:40.059Z,9.55
2023-04-21T11:01:56.974Z,8.38
2023-04-21T11:04:14.532Z,5.97
2023-04-21T11:06:31.790Z,8.15
2023-04-21T11:08:48.814Z,8.50
2023-04-21T11:11:06.069Z,7.50
2023-04-21T11:13:23.158Z,7.93
2023-04-21T11:15:40.103Z,8.55
2023-04-21T11:17:57.120Z,7.72
2023-04-21T11:20:14.115Z,6.53
2023-04-21T11:22:31.254Z,7.43
2023-04-21T11:24:48.286Z,5.57
2023-04-21T11:27:05.529Z,5.25
2023-04-21T11:29:22.502Z,6.05
2023-04-21T11:31:39.579Z,7.03
2023-04-21T11:33:56.914Z,7.97
2023-04-21T11:36:14.213Z,7.22
2023-04-21T11:38:31.207Z,6.43
2023-04-21T11:40:48.263Z,8.82
2023-04-21T11:43:05.649Z,7.97
2023-04-21T11:45:23.101Z,8.82
2023-04-21T11:47:40.449Z,9.15
2023-04-21T11:49:57.423Z,8.73
2023-04-21T11:52:14.699Z,9.98
2023-04-21T11:54:31.967Z,9.05
2023-04-21T11:56:49.217Z,7.72
2023-04-21T11:59:06.146Z,10.25
2023-04-21T12:01:23.108Z,8.25
2023-04-21T12:03:40.066Z,7.40
2023-04-21T12:05:57.255Z,8.15
2023-04-21T12:08:14.500Z,7.82
2023-04-21T12:10:31.798Z,9.20
2023-04-21T12:12:48.791Z,7.57
2023-04-21T12:15:05.774Z,7.43
2023-04-21T12:17:22.852Z,8.00
2023-04-21T12:19:40.133Z,7.10
2023-04-21T12:21:57.054Z,7.45
2023-04-21T12:24:14.033Z,5.93
2023-04-21T12:26:31.242Z,7.13
2023-04-21T12:28:48.194Z,7.75
2023-04-21T12:31:05.281Z,6.50
2023-04-21T12:33:22.700Z,5.82
2023-04-21T12:35:39.781Z,4.97
2023-04-21T12:37:56.848Z,5.30
2023-04-21T12:40:14.046Z,4.38
2023-04-21T12:42:31.305Z,4.93
2023-04-21T12:44:48.562Z,6.18
2023-04-21T12:47:05.865Z,4.70
2023-04-21T12:49:23.111Z,4.78
2023-04-21T12:51:40.129Z,4.10
2023-04-21T12:53:57.049Z,4.30
2023-04-21T12:56:14.116Z,3.65
2023-04-21T12:58:31.367Z,3.92
2023-04-21T13:00:48.395Z,3.67
2023-04-21T13:03:05.830Z,6.18
2023-04-21T13:05:23.288Z,4.50
2023-04-21T13:07:40.382Z,7.00
2023-04-21T13:09:57.408Z,4.45
2023-04-21T13:12:14.420Z,6.13
2023-04-21T13:14:31.352Z,5.68
2023-04-21T13:16:48.406Z,6.20
2023-04-21T13:19:05.673Z,5.38
2023-04-21T13:21:22.950Z,6.55
2023-04-21T13:23:40.231Z,6.68
2023-04-21T13:25:57.144Z,6.68
2023-04-21T13:28:14.056Z,7.55
2023-04-21T13:30:31.316Z,7.50
2023-04-21T13:32:48.300Z,7.75
2023-04-21T13:35:05.360Z,6.65
2023-04-21T13:37:22.492Z,8.18
2023-04-21T13:39:39.554Z,8.55
2023-04-21T13:41:56.587Z,8.00
2023-04-21T13:44:13.603Z,7.45
2023-04-21T13:46:31.792Z,8.00
2023-04-21T13:48:48.918Z,8.15
2023-04-21T13:51:05.954Z,8.60
2023-04-21T13:53:23.314Z,7.47
2023-04-21T13:55:40.313Z,7.63
2023-04-21T13:57:57.223Z,8.18
2023-04-21T14:00:14.654Z,7.30
2023-04-21T14:02:31.890Z,7.63
2023-04-21T14:04:50.101Z,8.18
2023-04-21T14:07:07.172Z,6.78
2023-04-21T14:09:24.484Z,7.93
2023-04-21T14:11:41.522Z,8.02
2023-04-21T14:14:09.079Z,10.38
2023-04-21T14:16:26.759Z,9.63
2023-04-21T14:18:43.760Z,9.98
2023-04-21T14:21:00.700Z,9.57
2023-04-21T14:23:17.681Z,10.05
2023-04-21T14:25:35.679Z,10.13
2023-04-21T14:27:53.009Z,11.20
2023-04-21T14:30:10.252Z,9.38
2023-04-21T14:32:27.677Z,10.75
2023-04-21T14:34:44.916Z,12.38
2023-04-21T14:37:02.958Z,11.75
2023-04-21T14:39:20.325Z,9.27
2023-04-21T14:41:37.621Z,10.52
2023-04-21T14:43:54.715Z,9.20
2023-04-21T14:46:11.850Z,11.55
2023-04-21T14:48:28.890Z,9.98
2023-04-21T14:50:46.099Z,12.80
2023-04-21T14:53:03.406Z,14.70
2023-04-21T14:55:20.741Z,13.25
2023-04-21T14:57:37.955Z,11.13
2023-04-21T14:59:55.160Z,13.55
2023-04-21T15:02:12.264Z,11.20
2023-04-21T15:04:29.392Z,10.60
2023-04-21T15:06:46.666Z,11.77
2023-04-21T15:09:03.668Z,10.00
2023-04-21T15:11:21.753Z,13.00
2023-04-21T15:13:39.745Z,11.43
2023-04-21T15:15:57.032Z,9.82
2023-04-21T15:18:14.415Z,9.82
2023-04-21T15:20:43.772Z,10.98
2023-04-21T15:23:03.113Z,9.73
2023-04-21T15:25:20.027Z,12.60
2023-04-21T15:27:37.062Z,8.98
2023-04-21T15:29:53.958Z,10.90
2023-04-21T15:32:11.295Z,11.70
2023-04-21T15:34:28.298Z,11.73
2023-04-21T15:36:45.577Z,13.40
2023-04-21T15:39:02.831Z,15.80
2023-04-21T15:41:20.137Z,15.98
2023-04-21T15:43:37.369Z,14.10
2023-04-21T15:45:54.385Z,15.32
2023-04-21T15:48:11.541Z,14.05
2023-04-21T15:50:28.699Z,12.43
2023-04-21T15:52:45.973Z,13.30
2023-04-21T15:55:03.007Z,12.40
2023-04-21T15:57:19.890Z,12.80
2023-04-21T15:59:37.385Z,13.32
2023-04-21T16:01:54.392Z,11.13
2023-04-21T16:04:11.892Z,11.43
2023-04-21T16:06:29.372Z,11.52
2023-04-21T16:08:46.508Z,12.88
2023-04-21T16:11:03.575Z,9.95
2023-04-21T16:13:20.856Z,9.57
2023-04-21T16:15:37.852Z,11.38
2023-04-21T16:17:56.304Z,11.38
2023-04-21T16:20:14.731Z,11.32
2023-04-21T16:22:32.088Z,13.13
2023-04-21T16:24:49.141Z,11.05
2023-04-21T16:27:06.363Z,10.98
2023-04-21T16:29:23.236Z,9.07
2023-04-21T16:31:40.182Z,12.35
2023-04-21T16:33:57.106Z,11.65
2023-04-21T16:36:14.379Z,14.70
2023-04-21T16:38:31.667Z,17.73
2023-04-21T16:40:49.058Z,17.52
2023-04-21T16:43:06.392Z,17.05
2023-04-21T16:45:23.331Z,18.65
2023-04-21T16:47:42.043Z,20.20
2023-04-21T16:49:59.518Z,18.92
2023-04-21T16:52:17.732Z,16.83
2023-04-21T16:54:34.700Z,15.88
2023-04-21T16:56:51.751Z,13.40
2023-04-21T16:59:08.765Z,13.35
2023-04-21T17:01:26.179Z,14.02
2023-04-21T17:03:43.609Z,12.77
2023-04-21T17:06:00.729Z,14.25
2023-04-21T17:08:18.039Z,11.77
2023-04-21T17:10:35.316Z,10.13
2023-04-21T17:12:52.270Z,12.50
2023-04-21T17:15:09.252Z,10.32
2023-04-21T17:17:26.172Z,11.10
2023-04-21T17:19:43.473Z,12.65
2023-04-21T17:22:00.421Z,9.30
2023-04-21T17:24:17.447Z,8.40
2023-04-21T17:26:34.482Z,8.48
2023-04-21T17:28:51.420Z,9.93
2023-04-21T17:31:15.801Z,10.63
2023-04-21T17:33:33.543Z,10.77
2023-04-21T17:36:02.230Z,10.68
2023-04-21T17:38:20.563Z,11.85
2023-04-21T17:40:37.628Z,10.13
2023-04-21T17:42:55.633Z,11.18
2023-04-21T17:45:12.547Z,10.15
2023-04-21T17:47:30.575Z,12.68
2023-04-21T17:49:47.568Z,10.68
2023-04-21T17:52:04.532Z,11.23
2023-04-21T17:54:21.911Z,11.02
2023-04-21T17:56:39.244Z,11.88
2023-04-21T17:58:56.516Z,12.85
2023-04-21T18:01:13.482Z,12.25
2023-04-21T18:03:31.905Z,10.15
2023-04-21T18:05:49.418Z,12.68
2023-04-21T18:08:06.352Z,16.40
2023-04-21T18:10:23.395Z,13.07
2023-04-21T18:12:41.664Z,11.98
2023-04-21T18:14:58.750Z,11.80
2023-04-21T18:17:17.412Z,11.77
2023-04-21T18:19:34.618Z,11.48
2023-04-21T18:21:51.566Z,12.85
2023-04-21T18:24:08.867Z,13.07
2023-04-21T18:26:26.098Z,13.20
2023-04-21T18:28:44.333Z,12.48
2023-04-21T18:31:02.353Z,11.63
2023-04-21T18:33:19.604Z,11.77
2023-04-21T18:35:36.653Z,10.23
2023-04-21T18:37:54.611Z,11.02
2023-04-21T18:40:11.629Z,10.55
2023-04-21T18:42:29.002Z,11.20
2023-04-21T18:44:46.226Z,11.38
2023-04-21T18:47:03.354Z,9.13
2023-04-21T18:49:20.447Z,9.55
2023-04-21T18:51:37.526Z,13.15
2023-04-21T18:53:54.580Z,11.73
2023-04-21T18:56:11.865Z,11.48
2023-04-21T18:58:28.735Z,9.80
2023-04-21T19:00:46.063Z,11.18
2023-04-21T19:03:03.509Z,11.52
2023-04-21T19:05:20.682Z,12.73
2023-04-21T19:07:37.936Z,14.52
2023-04-21T19:09:55.264Z,14.23
2023-04-21T19:12:12.153Z,10.18
2023-04-21T19:14:36.861Z,9.98
2023-04-21T19:16:59.776Z,8.75
2023-04-21T19:19:17.534Z,9.73
2023-04-21T19:21:34.563Z,8.20
2023-04-21T19:23:51.454Z,9.30
2023-04-21T19:26:08.728Z,9.32
2023-04-21T19:28:25.959Z,8.70
2023-04-21T19:30:43.159Z,11.30
2023-04-21T19:33:00.529Z,7.40
2023-04-21T19:35:17.868Z,9.73
2023-04-21T19:37:35.326Z,9.57
2023-04-21T19:39:52.743Z,7.72
2023-04-21T19:42:09.733Z,9.30
2023-04-21T19:44:26.618Z,8.13
2023-04-21T19:46:43.803Z,8.85
2023-04-21T19:49:01.133Z,11.40
2023-04-21T19:51:18.134Z,11.63
2023-04-21T19:53:36.198Z,9.30
2023-04-21T19:55:53.695Z,10.90
2023-04-21T19:58:11.079Z,11.20
2023-04-21T20:00:28.370Z,9.43
2023-04-21T20:02:45.526Z,9.77
2023-04-21T20:05:03.139Z,9.48
2023-04-21T20:07:20.197Z,7.97
2023-04-21T20:09:37.381Z,8.55
2023-04-21T20:11:54.601Z,8.48
2023-04-21T20:14:11.607Z,8.07
2023-04-21T20:16:28.814Z,8.15
2023-04-21T20:18:46.292Z,9.30
2023-04-21T20:21:03.701Z,9.38
2023-04-21T20:23:20.950Z,10.43
2023-04-21T20:25:37.939Z,8.10
2023-04-21T20:27:55.173Z,7.13
2023-04-21T20:30:13.139Z,7.43
2023-04-21T20:32:31.203Z,7.47
2023-04-21T20:34:48.295Z,7.57
2023-04-21T20:37:05.218Z,7.55
2023-04-21T20:39:22.530Z,7.32
2023-04-21T20:41:39.651Z,7.70
2023-04-21T20:43:56.959Z,8.27
2023-04-21T20:46:14.074Z,9.50
2023-04-21T20:48:31.421Z,6.85
2023-04-21T20:50:50.641Z,7.25
2023-04-21T20:53:08.533Z,7.22
2023-04-21T20:55:26.535Z,7.72
2023-04-21T20:57:44.578Z,7.70
2023-04-21T21:00:01.885Z,7.03
2023-04-21T21:02:19.080Z,7.50
2023-04-21T21:04:36.456Z,6.20
2023-04-21T21:06:54.540Z,6.93
2023-04-21T21:09:11.654Z,6.47
2023-04-21T21:11:28.598Z,7.80
2023-04-21T21:13:45.586Z,6.63
2023-04-21T21:16:02.620Z,8.18
2023-04-21T21:18:19.656Z,6.45
2023-04-21T21:20:36.650Z,7.57
2023-04-21T21:22:53.527Z,5.97
2023-04-21T21:25:10.533Z,7.82
2023-04-21T21:27:27.492Z,8.13
2023-04-21T21:29:44.458Z,8.43
2023-04-21T21:32:01.546Z,8.68
2023-04-21T21:34:18.638Z,7.00
2023-04-21T21:36:35.666Z,6.10
2023-04-21T21:38:53.600Z,6.45
2023-04-21T21:41:10.640Z,8.93
2023-04-21T21:43:27.660Z,7.57
2023-04-21T21:45:45.055Z,8.65
2023-04-21T21:48:03.088Z,7.70
2023-04-21T21:50:19.985Z,8.38
2023-04-21T21:52:36.992Z,7.40
2023-04-21T21:54:54.917Z,7.55
2023-04-21T21:57:11.958Z,6.35
2023-04-21T21:59:29.000Z,7.70
2023-04-21T22:01:46.083Z,7.85
2023-04-21T22:04:03.623Z,8.57
2023-04-21T22:06:20.798Z,8.07
2023-04-21T22:08:39.051Z,7.07
2023-04-21T22:10:56.072Z,8.10
2023-04-21T22:13:13.121Z,9.80
2023-04-21T22:15:31.482Z,8.18
2023-04-21T22:17:48.586Z,6.25
2023-04-21T22:20:05.810Z,8.20
2023-04-21T22:22:22.798Z,8.02
2023-04-21T22:24:40.796Z,7.68
2023-04-21T22:26:58.081Z,8.55
2023-04-21T22:29:15.324Z,7.82
2023-04-21T22:31:32.461Z,7.18
2023-04-21T22:33:50.799Z,8.18
2023-04-21T22:36:10.002Z,7.35
2023-04-21T22:38:27.053Z,7.53
2023-04-21T22:40:44.040Z,5.53
2023-04-21T22:43:01.095Z,6.65
2023-04-21T22:45:18.098Z,7.95
2023-04-21T22:47:35.317Z,6.57
2023-04-21T22:49:52.691Z,7.10
2023-04-21T22:52:09.914Z,7.13
2023-04-21T22:54:28.175Z,9.65
2023-04-21T22:56:45.242Z,6.55
2023-04-21T22:59:03.345Z,7.13
2023-04-21T23:01:20.757Z,6.82
2023-04-21T23:03:38.354Z,10.57
2023-04-21T23:05:58.365Z,10.10
2023-04-21T23:08:15.319Z,8.10
2023-04-21T23:10:32.648Z,10.18
2023-04-21T23:12:49.575Z,7.90
2023-04-21T23:15:06.414Z,7.93
2023-04-21T23:17:24.324Z,7.47
2023-04-21T23:19:41.507Z,8.00
2023-04-21T23:21:59.817Z,8.43
2023-04-21T23:24:16.826Z,7.90
2023-04-21T23:26:33.754Z,8.15
2023-04-21T23:28:51.022Z,8.32
2023-04-21T23:31:08.042Z,9.90
2023-04-21T23:33:25.368Z,9.20
2023-04-21T23:35:42.452Z,9.90
2023-04-21T23:37:59.741Z,10.90
2023-04-21T23:40:17.075Z,9.35
2023-04-21T23:42:34.176Z,11.27
2023-04-21T23:44:52.225Z,9.70
2023-04-21T23:47:09.126Z,8.55
2023-04-21T23:49:26.369Z,9.57
2023-04-21T23:51:43.260Z,9.88
2023-04-21T23:54:01.683Z,9.00
2023-04-21T23:56:19.036Z,6.78
2023-04-21T23:58:36.274Z,8.32
